createdAt,value
2022-10-04T00:01:51.256Z,98.80
2022-10-04T00:04:27.225Z,98.70
2022-10-04T00:07:06.817Z,98.60
2022-10-04T00:09:42.985Z,98.70
2022-10-04T00:12:20.156Z,98.60
2022-10-04T00:14:47.319Z,98.80
2022-10-04T00:17:14.910Z,98.90
2022-10-04T00:19:46.078Z,98.90
2022-10-04T00:22:13.679Z,99.00
2022-10-04T00:25:00.396Z,99.60
2022-10-04T00:27:27.965Z,99.80
2022-10-04T00:30:03.746Z,99.90
2022-10-04T00:32:39.602Z,99.60
2022-10-04T00:35:24.663Z,99.80
2022-10-04T00:38:11.609Z,99.90
2022-10-04T00:40:47.333Z,99.90
2022-10-04T00:43:18.559Z,99.90
2022-10-04T00:45:46.804Z,99.90
2022-10-04T00:48:31.078Z,99.90
2022-10-04T00:50:58.252Z,99.90
2022-10-04T00:53:39.089Z,99.90
2022-10-04T00:56:08.791Z,99.90
2022-10-04T00:58:39.526Z,99.90
2022-10-04T01:01:06.697Z,99.90
2022-10-04T01:03:37.169Z,99.90
2022-10-04T01:06:05.639Z,99.90
2022-10-04T01:08:34.271Z,99.90
2022-10-04T01:11:10.389Z,99.90
2022-10-04T01:13:39.286Z,99.90
2022-10-04T01:16:17.962Z,99.90
2022-10-04T01:18:45.306Z,99.90
2022-10-04T01:21:21.262Z,99.90
2022-10-04T01:23:48.003Z,99.90
2022-10-04T01:26:27.075Z,99.90
2022-10-04T01:28:55.255Z,99.90
2022-10-04T01:31:22.250Z,99.90
2022-10-04T01:33:49.087Z,99.90
2022-10-04T01:36:15.857Z,99.90
2022-10-04T01:38:42.629Z,99.90
2022-10-04T01:41:10.787Z,99.90
2022-10-04T01:43:39.905Z,99.90
2022-10-04T01:46:10.918Z,99.90
2022-10-04T01:48:38.158Z,99.90
2022-10-04T01:51:07.604Z,99.90
2022-10-04T01:53:42.941Z,99.90
2022-10-04T01:56:17.757Z,99.90
2022-10-04T01:58:57.569Z,99.90
2022-10-04T02:01:36.673Z,99.90
2022-10-04T02:04:06.102Z,99.90
2022-10-04T02:06:38.306Z,99.90
2022-10-04T02:09:10.577Z,99.90
2022-10-04T02:11:37.654Z,99.90
2022-10-04T02:14:04.654Z,99.90
2022-10-04T02:16:35.805Z,99.90
2022-10-04T02:19:02.985Z,99.90
2022-10-04T02:21:31.204Z,99.90
2022-10-04T02:23:58.094Z,99.90
2022-10-04T02:26:24.786Z,99.90
2022-10-04T02:28:51.482Z,99.90
2022-10-04T02:31:21.236Z,99.90
2022-10-04T02:33:50.169Z,99.90
2022-10-04T02:36:17.096Z,99.90
2022-10-04T02:38:43.812Z,99.90
2022-10-04T02:41:23.049Z,99.90
2022-10-04T02:43:57.839Z,99.90
2022-10-04T02:46:28.994Z,99.90
2022-10-04T02:49:06.486Z,99.90
2022-10-04T02:51:36.252Z,99.90
2022-10-04T02:54:12.363Z,99.90
2022-10-04T02:56:39.449Z,99.90
2022-10-04T02:59:06.800Z,99.90
2022-10-04T03:01:40.515Z,99.90
2022-10-04T03:04:10.402Z,99.90
2022-10-04T03:06:37.166Z,99.90
2022-10-04T03:09:05.550Z,99.90
2022-10-04T03:11:37.237Z,99.90
2022-10-04T03:14:06.121Z,99.90
2022-10-04T03:16:37.990Z,99.90
2022-10-04T03:19:05.712Z,99.90
2022-10-04T03:21:33.123Z,99.90
2022-10-04T03:24:00.783Z,99.90
2022-10-04T03:26:29.615Z,99.90
2022-10-04T03:28:57.304Z,99.90
2022-10-04T03:31:24.651Z,99.90
2022-10-04T03:33:51.509Z,99.90
2022-10-04T03:36:18.802Z,99.90
2022-10-04T03:38:46.840Z,99.90
2022-10-04T03:41:14.490Z,99.90
2022-10-04T03:43:44.463Z,99.90
2022-10-04T03:46:12.090Z,99.90
2022-10-04T03:48:44.522Z,99.90
2022-10-04T03:51:16.473Z,99.90
2022-10-04T03:53:45.269Z,99.90
2022-10-04T03:56:20.295Z,99.90
2022-10-04T03:58:47.396Z,99.90
2022-10-04T04:01:18.421Z,99.90
2022-10-04T04:03:57.378Z,99.90
2022-10-04T04:06:24.755Z,99.90
2022-10-04T04:08:56.416Z,99.90
2022-10-04T04:11:24.673Z,99.90
2022-10-04T04:14:02.933Z,99.90
2022-10-04T04:16:29.887Z,99.90
2022-10-04T04:19:01.266Z,99.90
2022-10-04T04:21:28.101Z,99.90
2022-10-04T04:24:02.935Z,99.90
2022-10-04T04:26:34.611Z,99.90
2022-10-04T04:29:12.000Z,99.90
2022-10-04T04:31:42.765Z,99.90
2022-10-04T04:34:23.786Z,99.90
2022-10-04T04:36:50.804Z,99.90
2022-10-04T04:39:22.169Z,99.90
2022-10-04T04:41:50.761Z,99.90
2022-10-04T04:44:18.369Z,99.90
2022-10-04T04:46:47.956Z,99.90
2022-10-04T04:49:18.331Z,99.90
2022-10-04T04:51:49.328Z,99.90
2022-10-04T04:54:16.503Z,99.90
2022-10-04T04:56:44.050Z,99.90
2022-10-04T04:59:11.941Z,99.90
2022-10-04T05:01:43.509Z,99.90
2022-10-04T05:04:10.390Z,99.90
2022-10-04T05:06:38.163Z,99.90
2022-10-04T05:09:05.749Z,99.90
2022-10-04T05:11:37.915Z,99.90
2022-10-04T05:14:06.864Z,99.90
2022-10-04T05:16:42.896Z,99.90
2022-10-04T05:19:18.620Z,99.90
2022-10-04T05:21:46.175Z,99.90
2022-10-04T05:24:14.878Z,99.90
2022-10-04T05:26:42.658Z,99.90
2022-10-04T05:29:12.267Z,99.90
2022-10-04T05:32:02.122Z,99.90
2022-10-04T05:34:30.832Z,99.90
2022-10-04T05:37:14.569Z,99.90
2022-10-04T05:39:45.433Z,99.90
2022-10-04T05:42:41.286Z,99.90
2022-10-04T05:45:14.149Z,99.90
2022-10-04T05:47:42.376Z,99.90
2022-10-04T05:50:17.282Z,99.90
2022-10-04T05:52:44.133Z,99.90
2022-10-04T05:55:29.798Z,99.90
2022-10-04T05:57:59.660Z,99.90
2022-10-04T06:00:44.847Z,99.90
2022-10-04T06:03:30.130Z,99.90
2022-10-04T06:06:00.784Z,99.90
2022-10-04T06:08:56.915Z,99.90
2022-10-04T06:11:26.396Z,99.90
2022-10-04T06:14:11.510Z,99.90
2022-10-04T06:16:41.369Z,99.90
2022-10-04T06:19:10.901Z,99.90
2022-10-04T06:21:45.563Z,99.90
2022-10-04T06:24:16.169Z,99.90
2022-10-04T06:26:42.935Z,99.90
2022-10-04T06:29:18.312Z,99.90
2022-10-04T06:31:57.522Z,99.90
2022-10-04T06:34:31.476Z,99.90
2022-10-04T06:37:17.240Z,99.90
2022-10-04T06:39:56.145Z,99.90
2022-10-04T06:42:41.566Z,99.90
2022-10-04T06:45:27.107Z,99.90
2022-10-04T06:47:56.602Z,99.90
2022-10-04T06:50:26.243Z,99.90
2022-10-04T06:53:08.069Z,99.90
2022-10-04T06:55:49.394Z,99.90
2022-10-04T06:58:34.643Z,99.90
2022-10-04T07:01:21.678Z,99.90
2022-10-04T07:03:51.913Z,99.90
2022-10-04T07:06:24.527Z,99.90
2022-10-04T07:08:52.459Z,99.90
2022-10-04T07:11:38.105Z,99.90
2022-10-04T07:14:20.119Z,99.90
2022-10-04T07:16:48.955Z,99.90
2022-10-04T07:19:27.494Z,99.90
2022-10-04T07:21:54.147Z,99.90
2022-10-04T07:24:27.055Z,99.90
2022-10-04T07:26:55.047Z,99.90
2022-10-04T07:29:28.411Z,99.90
2022-10-04T07:32:04.489Z,99.90
2022-10-04T07:34:57.660Z,99.90
2022-10-04T07:37:26.300Z,99.90
2022-10-04T07:39:58.644Z,99.90
2022-10-04T07:42:25.271Z,99.90
2022-10-04T07:44:59.981Z,99.90
2022-10-04T07:47:26.999Z,99.90
2022-10-04T07:49:54.384Z,99.90
2022-10-04T07:52:39.754Z,99.90
2022-10-04T07:55:06.422Z,99.90
2022-10-04T07:57:42.157Z,99.90
2022-10-04T08:00:15.525Z,99.90
2022-10-04T08:02:45.096Z,99.90
2022-10-04T08:05:18.183Z,99.90
2022-10-04T08:07:57.110Z,99.90
2022-10-04T08:10:23.820Z,99.90
2022-10-04T08:12:53.479Z,99.90
2022-10-04T08:15:34.637Z,99.90
2022-10-04T08:18:07.330Z,99.90
2022-10-04T08:20:36.860Z,99.90
2022-10-04T08:23:14.559Z,99.90
2022-10-04T08:25:56.473Z,99.90
2022-10-04T08:28:42.491Z,99.90
2022-10-04T08:31:18.796Z,99.90
2022-10-04T08:34:11.582Z,99.90
2022-10-04T08:36:56.984Z,99.90
2022-10-04T08:39:35.859Z,99.90
2022-10-04T08:42:28.653Z,99.90
2022-10-04T08:44:58.341Z,99.90
2022-10-04T08:47:43.667Z,99.90
2022-10-04T08:50:22.291Z,99.90
2022-10-04T08:52:58.021Z,99.90
2022-10-04T08:55:39.967Z,99.90
2022-10-04T08:58:22.074Z,99.90
2022-10-04T09:00:54.805Z,99.20
2022-10-04T09:03:33.906Z,99.90
2022-10-04T09:06:03.683Z,99.90
2022-10-04T09:08:33.394Z,99.90
2022-10-04T09:11:22.057Z,99.90
2022-10-04T09:14:00.951Z,99.80
2022-10-04T09:16:27.610Z,99.90
2022-10-04T09:19:19.361Z,99.70
2022-10-04T09:21:46.053Z,99.10
2022-10-04T09:24:28.011Z,99.00
2022-10-04T09:27:00.660Z,98.60
2022-10-04T09:29:47.391Z,99.90
2022-10-04T09:32:39.070Z,97.70
2022-10-04T09:35:24.255Z,99.30
2022-10-04T09:38:09.256Z,98.90
2022-10-04T09:40:38.943Z,98.40
2022-10-04T09:43:23.934Z,98.60
2022-10-04T09:46:09.562Z,97.40
2022-10-04T09:48:42.028Z,96.30
2022-10-04T09:51:18.325Z,94.00
2022-10-04T09:54:03.798Z,96.00
2022-10-04T09:56:40.003Z,95.40
2022-10-04T09:59:25.374Z,95.90
2022-10-04T10:01:52.080Z,96.00
2022-10-04T10:04:45.160Z,95.90
2022-10-04T10:07:21.061Z,95.90
2022-10-04T10:09:59.342Z,95.50
2022-10-04T10:12:43.517Z,94.50
2022-10-04T10:15:22.548Z,93.90
2022-10-04T10:17:55.471Z,95.60
2022-10-04T10:20:37.409Z,92.60
2022-10-04T10:23:04.185Z,93.80
2022-10-04T10:25:33.581Z,96.00
2022-10-04T10:28:00.225Z,96.60
2022-10-04T10:30:29.922Z,97.40
2022-10-04T10:33:22.728Z,97.40
2022-10-04T10:36:08.093Z,97.50
2022-10-04T10:38:50.058Z,98.00
2022-10-04T10:41:19.859Z,97.10
2022-10-04T10:44:05.374Z,97.90
2022-10-04T10:46:34.839Z,97.20
2022-10-04T10:49:01.518Z,95.20
2022-10-04T10:51:46.326Z,94.40
2022-10-04T10:54:27.253Z,95.80
2022-10-04T10:57:15.384Z,93.40
2022-10-04T10:59:54.342Z,94.10
2022-10-04T11:02:48.065Z,94.50
2022-10-04T11:05:26.592Z,93.40
2022-10-04T11:08:10.472Z,92.90
2022-10-04T11:10:42.955Z,94.50
2022-10-04T11:13:17.475Z,93.40
2022-10-04T11:16:02.864Z,93.40
2022-10-04T11:18:29.622Z,93.10
2022-10-04T11:23:41.939Z,91.20
2022-10-04T11:26:28.831Z,92.50
2022-10-04T11:29:14.127Z,91.50
2022-10-04T11:31:50.079Z,93.00
2022-10-04T11:34:23.184Z,91.10
2022-10-04T11:36:49.869Z,91.40
2022-10-04T11:39:35.471Z,92.70
2022-10-04T11:42:20.641Z,91.40
2022-10-04T11:44:53.518Z,91.70
2022-10-04T11:47:33.954Z,93.70
2022-10-04T11:50:19.487Z,91.20
2022-10-04T11:52:46.163Z,91.50
2022-10-04T11:55:31.285Z,92.10
2022-10-04T11:58:11.917Z,93.50
2022-10-04T12:01:02.306Z,91.80
2022-10-04T12:03:47.780Z,92.10
2022-10-04T12:06:17.549Z,92.50
2022-10-04T12:08:56.513Z,91.00
2022-10-04T12:11:38.486Z,90.30
2022-10-04T12:14:25.866Z,90.30
2022-10-04T12:17:15.586Z,90.00
2022-10-04T12:19:51.211Z,90.30
2022-10-04T12:22:17.849Z,90.20
2022-10-04T12:25:10.554Z,89.30
2022-10-04T12:27:45.372Z,90.80
2022-10-04T12:30:21.139Z,89.20
2022-10-04T12:32:58.011Z,88.30
2022-10-04T12:35:32.497Z,87.20
2022-10-04T12:38:11.462Z,89.60
2022-10-04T12:40:50.341Z,90.10
2022-10-04T12:43:16.967Z,89.30
2022-10-04T12:46:02.117Z,89.70
2022-10-04T12:48:44.050Z,89.00
2022-10-04T12:51:26.119Z,90.50
2022-10-04T12:53:58.821Z,88.60
2022-10-04T12:56:31.373Z,88.40
2022-10-04T12:59:04.045Z,88.00
2022-10-04T13:01:30.712Z,90.20
2022-10-04T13:04:09.117Z,90.50
2022-10-04T13:06:54.887Z,89.50
2022-10-04T13:09:40.564Z,86.50
2022-10-04T13:12:13.196Z,84.70
2022-10-04T13:14:39.820Z,86.10
2022-10-04T13:17:31.539Z,85.20
2022-10-04T13:20:23.968Z,88.40
2022-10-04T13:23:03.993Z,90.00
2022-10-04T13:25:43.220Z,87.00
2022-10-04T13:28:25.339Z,86.40
2022-10-04T13:30:52.091Z,86.40
2022-10-04T13:33:23.825Z,87.00
2022-10-04T13:36:13.815Z,85.90
2022-10-04T13:38:54.479Z,85.40
2022-10-04T13:41:35.352Z,87.10
2022-10-04T13:44:20.242Z,87.30
2022-10-04T13:46:55.969Z,86.40
2022-10-04T13:49:28.360Z,85.30
2022-10-04T13:52:07.820Z,86.10
2022-10-04T13:54:39.617Z,86.50
2022-10-04T13:57:14.291Z,89.30
2022-10-04T13:59:44.297Z,87.20
2022-10-04T14:02:36.514Z,89.50
2022-10-04T14:05:15.591Z,85.30
2022-10-04T14:07:54.326Z,86.50
2022-10-04T14:10:21.024Z,85.00
2022-10-04T14:13:09.349Z,86.80
2022-10-04T14:15:35.969Z,85.20
2022-10-04T14:18:11.625Z,84.80
2022-10-04T14:20:57.009Z,87.70
2022-10-04T14:23:49.775Z,88.20
2022-10-04T14:26:35.150Z,85.80
2022-10-04T14:29:22.036Z,85.40
2022-10-04T14:32:01.116Z,85.50
2022-10-04T14:34:46.412Z,83.60
2022-10-04T14:37:32.005Z,82.60
2022-10-04T14:40:20.094Z,85.80
2022-10-04T14:42:52.792Z,87.00
2022-10-04T14:45:29.497Z,86.80
2022-10-04T14:48:08.378Z,85.70
2022-10-04T14:50:47.118Z,84.80
2022-10-04T14:53:22.712Z,86.00
2022-10-04T14:55:55.254Z,86.90
2022-10-04T14:58:24.895Z,81.50
2022-10-04T15:00:54.499Z,82.40
2022-10-04T15:03:29.986Z,85.70
2022-10-04T15:06:04.182Z,87.00
2022-10-04T15:08:30.845Z,87.80
2022-10-04T15:11:00.224Z,86.80
2022-10-04T15:13:39.738Z,86.50
2022-10-04T15:16:14.455Z,86.70
2022-10-04T15:18:50.380Z,87.90
2022-10-04T15:21:20.106Z,86.60
2022-10-04T15:23:49.274Z,88.40
2022-10-04T15:26:18.745Z,90.20
2022-10-04T15:28:51.351Z,90.60
2022-10-04T15:31:27.285Z,91.20
2022-10-04T15:34:12.675Z,90.80
2022-10-04T15:36:39.637Z,91.90
2022-10-04T15:39:25.181Z,91.80
2022-10-04T15:41:57.648Z,91.50
2022-10-04T15:44:45.744Z,91.90
2022-10-04T15:47:21.759Z,92.10
2022-10-04T15:50:08.712Z,92.10
2022-10-04T15:52:49.334Z,92.30
2022-10-04T15:55:22.272Z,92.80
2022-10-04T15:58:01.038Z,91.80
2022-10-04T16:00:47.997Z,92.80
2022-10-04T16:03:26.605Z,92.70
2022-10-04T16:06:02.670Z,93.40
2022-10-04T16:08:41.758Z,93.70
2022-10-04T16:11:24.202Z,93.80
2022-10-04T16:13:50.881Z,94.30
2022-10-04T16:16:17.789Z,94.80
2022-10-04T16:18:47.626Z,94.80
2022-10-04T16:21:17.010Z,95.20
2022-10-04T16:23:43.976Z,95.50
2022-10-04T16:26:33.581Z,95.70
2022-10-04T16:29:02.943Z,95.50
2022-10-04T16:31:48.407Z,95.80
2022-10-04T16:34:25.715Z,95.80
2022-10-04T16:36:58.482Z,96.30
2022-10-04T16:39:40.405Z,96.60
2022-10-04T16:42:10.834Z,97.20
2022-10-04T16:44:54.886Z,97.90
2022-10-04T16:47:31.716Z,98.70
2022-10-04T16:50:00.132Z,99.20
2022-10-04T16:52:26.774Z,99.30
2022-10-04T16:54:53.451Z,99.90
2022-10-04T16:57:23.011Z,99.90
2022-10-04T16:59:51.337Z,99.90
2022-10-04T17:02:36.726Z,99.90
2022-10-04T17:05:18.411Z,99.90
2022-10-04T17:07:57.062Z,99.90
2022-10-04T17:10:40.207Z,99.90
2022-10-04T17:13:14.658Z,99.90
2022-10-04T17:15:41.402Z,99.90
2022-10-04T17:18:31.091Z,99.90
2022-10-04T17:21:03.751Z,99.90
2022-10-04T17:23:36.496Z,99.90
2022-10-04T17:26:08.848Z,99.90
2022-10-04T17:28:50.347Z,99.90
2022-10-04T17:31:32.046Z,99.90
2022-10-04T17:34:01.873Z,99.90
2022-10-04T17:36:34.052Z,99.90
2022-10-04T17:39:25.960Z,99.90
2022-10-04T17:41:58.728Z,99.90
2022-10-04T17:44:29.274Z,99.90
2022-10-04T17:47:15.933Z,99.90
2022-10-04T17:50:03.462Z,99.90
2022-10-04T17:52:34.032Z,99.90
2022-10-04T17:55:03.713Z,99.90
2022-10-04T17:57:30.403Z,99.90
2022-10-04T18:00:06.419Z,99.90
2022-10-04T18:05:03.339Z,99.90
2022-10-04T18:07:37.223Z,99.90
2022-10-04T18:10:22.353Z,99.90
2022-10-04T18:13:00.393Z,99.90
2022-10-04T18:15:30.231Z,99.90
2022-10-04T18:18:05.983Z,99.90
2022-10-04T18:20:51.690Z,99.90
2022-10-04T18:23:22.582Z,99.90
2022-10-04T18:25:49.850Z,99.90
2022-10-04T18:28:20.331Z,99.90
2022-10-04T18:30:50.081Z,99.90
2022-10-04T18:33:18.924Z,99.90
2022-10-04T18:36:03.215Z,99.90
2022-10-04T18:38:31.452Z,99.90
2022-10-04T18:41:00.601Z,99.90
2022-10-04T18:43:32.145Z,99.90
2022-10-04T18:46:14.599Z,99.90
2022-10-04T18:48:44.259Z,99.90
2022-10-04T18:51:23.357Z,99.90
2022-10-04T18:53:58.289Z,99.90
2022-10-04T18:56:25.409Z,99.90
2022-10-04T18:58:58.520Z,99.90
2022-10-04T19:01:34.587Z,99.90
2022-10-04T19:04:03.678Z,99.90
2022-10-04T19:06:32.536Z,99.90
2022-10-04T19:09:07.167Z,99.90
2022-10-04T19:11:40.622Z,99.90
2022-10-04T19:14:19.677Z,99.90
2022-10-04T19:16:59.335Z,99.90
2022-10-04T19:19:32.884Z,99.90
2022-10-04T19:21:59.992Z,99.90
2022-10-04T19:24:27.516Z,99.90
2022-10-04T19:27:00.385Z,99.90
2022-10-04T19:29:33.337Z,99.90
2022-10-04T19:32:08.952Z,99.90
2022-10-04T19:34:57.382Z,99.90
2022-10-04T19:37:24.285Z,99.90
2022-10-04T19:40:16.813Z,99.90
2022-10-04T19:42:57.939Z,99.90
2022-10-04T19:45:42.101Z,99.90
2022-10-04T19:48:23.375Z,99.90
2022-10-04T19:50:53.857Z,99.90
2022-10-04T19:53:24.414Z,99.90
2022-10-04T19:55:51.333Z,99.90
2022-10-04T19:58:30.531Z,99.90
2022-10-04T20:00:57.580Z,99.90
2022-10-04T20:03:24.730Z,99.90
2022-10-04T20:05:58.008Z,99.90
2022-10-04T20:08:43.583Z,99.90
2022-10-04T20:11:18.385Z,99.90
2022-10-04T20:13:45.395Z,99.90
2022-10-04T20:16:12.379Z,99.90
2022-10-04T20:18:39.119Z,99.90
2022-10-04T20:21:08.409Z,99.90
2022-10-04T20:23:37.923Z,99.90
2022-10-04T20:26:05.817Z,99.90
2022-10-04T20:28:32.529Z,99.90
2022-10-04T20:31:00.806Z,99.90
2022-10-04T20:33:47.782Z,99.90
2022-10-04T20:36:20.702Z,99.90
2022-10-04T20:38:47.449Z,99.90
2022-10-04T20:41:29.402Z,99.90
2022-10-04T20:44:00.571Z,99.90
2022-10-04T20:46:37.475Z,99.90
2022-10-04T20:49:05.370Z,99.90
2022-10-04T20:51:32.341Z,99.90
2022-10-04T20:53:59.724Z,99.90
2022-10-04T20:56:30.601Z,99.90
2022-10-04T20:58:58.763Z,99.90
2022-10-04T21:01:31.354Z,99.90
2022-10-04T21:04:16.940Z,99.90
2022-10-04T21:06:58.118Z,99.90
2022-10-04T21:09:25.752Z,99.90
2022-10-04T21:11:53.416Z,99.90
2022-10-04T21:14:33.772Z,99.90
2022-10-04T21:17:02.938Z,99.90
2022-10-04T21:19:33.247Z,99.90
2022-10-04T21:22:00.882Z,99.90
2022-10-04T21:24:34.484Z,99.90
2022-10-04T21:27:01.432Z,99.90
2022-10-04T21:29:28.328Z,99.90
2022-10-04T21:31:58.422Z,99.90
2022-10-04T21:34:51.405Z,99.90
2022-10-04T21:37:12.503Z,99.90
2022-10-04T21:39:39.419Z,99.90
2022-10-04T21:42:06.174Z,99.90
2022-10-04T21:44:33.108Z,99.90
2022-10-04T21:46:59.908Z,99.90
2022-10-04T21:49:26.615Z,99.90
2022-10-04T21:51:53.358Z,99.90
2022-10-04T21:54:20.064Z,99.90
2022-10-04T21:56:47.164Z,99.90
2022-10-04T21:59:14.184Z,99.90
2022-10-04T22:01:40.880Z,99.90
2022-10-04T22:04:07.608Z,99.90
2022-10-04T22:06:34.325Z,99.90
2022-10-04T22:09:01.134Z,99.90
2022-10-04T22:11:27.821Z,99.90
2022-10-04T22:13:54.541Z,99.90
2022-10-04T22:16:21.387Z,99.90
2022-10-04T22:18:48.169Z,99.90
2022-10-04T22:21:14.957Z,99.90
2022-10-04T22:23:42.616Z,99.90
2022-10-04T22:26:13.746Z,99.90
2022-10-04T22:28:44.617Z,99.90
2022-10-04T22:31:12.130Z,99.90
2022-10-04T22:33:39.918Z,99.90
2022-10-04T22:36:12.967Z,99.90
2022-10-04T22:38:40.179Z,99.90
2022-10-04T22:41:11.639Z,99.90
2022-10-04T22:43:38.434Z,99.90
2022-10-04T22:46:05.389Z,99.90
2022-10-04T22:48:32.236Z,99.90
2022-10-04T22:50:59.016Z,99.90
2022-10-04T22:53:25.793Z,99.90
2022-10-04T22:55:52.508Z,99.90
2022-10-04T22:58:19.217Z,99.90
2022-10-04T23:00:45.919Z,99.90
2022-10-04T23:03:27.319Z,99.90
2022-10-04T23:05:54.099Z,99.90
2022-10-04T23:08:20.816Z,99.90
2022-10-04T23:10:47.602Z,99.90
2022-10-04T23:13:14.326Z,99.90
2022-10-04T23:15:41.066Z,99.90
2022-10-04T23:18:13.466Z,99.90
2022-10-04T23:20:40.188Z,99.90
2022-10-04T23:23:10.828Z,99.90
2022-10-04T23:25:39.962Z,99.90
2022-10-04T23:28:13.854Z,99.90
2022-10-04T23:30:40.664Z,99.90
2022-10-04T23:33:18.023Z,99.90
